sensor_id;sensor_type;location;lat;lon;timestamp;P1;durP1;ratioP1;P2;durP2;ratioP2
8171;SDS011;4127;47.908;10.850;2023-05-10T00:00:01;0.90;;;0.90;;
8171;SDS011;4127;47.908;10.850;2023-05-10T00:02:30;1.20;;;1.10;;
8171;SDS011;4127;47.908;10.850;2023-05-10T00:04:57;1.13;;;1.07;;
8171;SDS011;4127;47.908;10.850;2023-05-10T00:07:24;1.30;;;1.20;;
8171;SDS011;4127;47.908;10.850;2023-05-10T00:09:51;1.80;;;1.07;;
8171;SDS011;4127;47.908;10.850;2023-05-10T00:12:17;0.90;;;0.90;;
8171;SDS011;4127;47.908;10.850;2023-05-10T00:14:44;0.90;;;0.90;;
8171;SDS011;4127;47.908;10.850;2023-05-10T00:17:11;1.20;;;1.20;;
8171;SDS011;4127;47.908;10.850;2023-05-10T00:19:38;0.90;;;0.90;;
8171;SDS011;4127;47.908;10.850;2023-05-10T00:22:04;1.20;;;1.10;;
8171;SDS011;4127;47.908;10.850;2023-05-10T00:24:31;1.43;;;1.10;;
8171;SDS011;4127;47.908;10.850;2023-05-10T00:26:58;1.00;;;1.00;;
8171;SDS011;4127;47.908;10.850;2023-05-10T00:29:26;1.00;;;1.00;;
8171;SDS011;4127;47.908;10.850;2023-05-10T00:31:54;0.90;;;0.90;;
8171;SDS011;4127;47.908;10.850;2023-05-10T00:34:21;1.30;;;0.97;;
8171;SDS011;4127;47.908;10.850;2023-05-10T00:36:48;1.00;;;1.00;;
8171;SDS011;4127;47.908;10.850;2023-05-10T00:39:14;1.00;;;1.00;;
8171;SDS011;4127;47.908;10.850;2023-05-10T00:41:41;1.00;;;0.87;;
8171;SDS011;4127;47.908;10.850;2023-05-10T00:44:08;0.90;;;0.90;;
8171;SDS011;4127;47.908;10.850;2023-05-10T00:46:35;0.90;;;0.90;;
8171;SDS011;4127;47.908;10.850;2023-05-10T00:49:02;0.93;;;0.93;;
8171;SDS011;4127;47.908;10.850;2023-05-10T00:51:29;1.50;;;1.00;;
8171;SDS011;4127;47.908;10.850;2023-05-10T00:53:57;0.80;;;0.80;;
8171;SDS011;4127;47.908;10.850;2023-05-10T00:56:25;1.00;;;1.00;;
8171;SDS011;4127;47.908;10.850;2023-05-10T00:58:52;1.10;;;1.10;;
8171;SDS011;4127;47.908;10.850;2023-05-10T01:01:19;0.87;;;0.80;;
8171;SDS011;4127;47.908;10.850;2023-05-10T01:03:46;1.10;;;1.10;;
8171;SDS011;4127;47.908;10.850;2023-05-10T01:06:15;0.80;;;0.80;;
8171;SDS011;4127;47.908;10.850;2023-05-10T01:08:42;0.80;;;0.80;;
8171;SDS011;4127;47.908;10.850;2023-05-10T01:11:09;1.00;;;1.00;;
8171;SDS011;4127;47.908;10.850;2023-05-10T01:13:36;0.80;;;0.80;;
8171;SDS011;4127;47.908;10.850;2023-05-10T01:16:04;0.80;;;0.80;;
8171;SDS011;4127;47.908;10.850;2023-05-10T01:18:33;0.87;;;0.87;;
8171;SDS011;4127;47.908;10.850;2023-05-10T01:21:08;1.03;;;1.03;;
8171;SDS011;4127;47.908;10.850;2023-05-10T01:32:48;1.30;;;1.07;;
8171;SDS011;4127;47.908;10.850;2023-05-10T01:43:21;0.83;;;0.83;;
8171;SDS011;4127;47.908;10.850;2023-05-10T01:48:24;1.10;;;1.10;;
8171;SDS011;4127;47.908;10.850;2023-05-10T01:50:54;1.10;;;1.00;;
8171;SDS011;4127;47.908;10.850;2023-05-10T01:53:22;1.03;;;1.03;;
8171;SDS011;4127;47.908;10.850;2023-05-10T01:55:51;0.97;;;0.97;;
8171;SDS011;4127;47.908;10.850;2023-05-10T01:58:21;0.83;;;0.83;;
8171;SDS011;4127;47.908;10.850;2023-05-10T02:00:51;1.00;;;1.00;;
8171;SDS011;4127;47.908;10.850;2023-05-10T02:03:23;0.87;;;0.87;;
8171;SDS011;4127;47.908;10.850;2023-05-10T02:05:52;0.90;;;0.90;;
8171;SDS011;4127;47.908;10.850;2023-05-10T02:08:22;1.00;;;1.00;;
8171;SDS011;4127;47.908;10.850;2023-05-10T02:10:51;0.80;;;0.80;;
8171;SDS011;4127;47.908;10.850;2023-05-10T02:13:21;0.73;;;0.73;;
8171;SDS011;4127;47.908;10.850;2023-05-10T02:15:50;0.80;;;0.80;;
8171;SDS011;4127;47.908;10.850;2023-05-10T02:18:18;0.90;;;0.90;;
8171;SDS011;4127;47.908;10.850;2023-05-10T02:20:45;1.00;;;1.00;;
8171;SDS011;4127;47.908;10.850;2023-05-10T02:23:13;0.83;;;0.83;;
8171;SDS011;4127;47.908;10.850;2023-05-10T02:25:41;0.80;;;0.80;;
8171;SDS011;4127;47.908;10.850;2023-05-10T02:28:10;0.90;;;0.90;;
8171;SDS011;4127;47.908;10.850;2023-05-10T02:30:38;0.70;;;0.70;;
8171;SDS011;4127;47.908;10.850;2023-05-10T02:33:06;0.90;;;0.80;;
8171;SDS011;4127;47.908;10.850;2023-05-10T02:35:34;0.80;;;0.80;;
8171;SDS011;4127;47.908;10.850;2023-05-10T02:38:02;0.73;;;0.73;;
8171;SDS011;4127;47.908;10.850;2023-05-10T02:40:30;0.90;;;0.90;;
8171;SDS011;4127;47.908;10.850;2023-05-10T02:42:58;0.80;;;0.80;;
8171;SDS011;4127;47.908;10.850;2023-05-10T02:45:29;0.90;;;0.83;;
8171;SDS011;4127;47.908;10.850;2023-05-10T02:47:57;0.70;;;0.70;;
8171;SDS011;4127;47.908;10.850;2023-05-10T02:50:28;0.80;;;0.80;;
8171;SDS011;4127;47.908;10.850;2023-05-10T02:52:59;0.80;;;0.80;;
8171;SDS011;4127;47.908;10.850;2023-05-10T02:55:31;0.87;;;0.87;;
8171;SDS011;4127;47.908;10.850;2023-05-10T02:58:02;1.00;;;1.00;;
8171;SDS011;4127;47.908;10.850;2023-05-10T03:00:29;0.93;;;0.93;;
8171;SDS011;4127;47.908;10.850;2023-05-10T03:02:56;0.80;;;0.80;;
8171;SDS011;4127;47.908;10.850;2023-05-10T03:05:22;1.00;;;0.80;;
8171;SDS011;4127;47.908;10.850;2023-05-10T03:07:49;0.70;;;0.70;;
8171;SDS011;4127;47.908;10.850;2023-05-10T03:10:17;0.70;;;0.67;;
8171;SDS011;4127;47.908;10.850;2023-05-10T03:15:47;1.43;;;0.73;;
8171;SDS011;4127;47.908;10.850;2023-05-10T03:21:13;1.00;;;1.00;;
8171;SDS011;4127;47.908;10.850;2023-05-10T03:23:59;0.80;;;0.80;;
8171;SDS011;4127;47.908;10.850;2023-05-10T03:26:32;0.87;;;0.87;;
8171;SDS011;4127;47.908;10.850;2023-05-10T03:29:01;0.70;;;0.70;;
8171;SDS011;4127;47.908;10.850;2023-05-10T03:31:29;0.73;;;0.73;;
8171;SDS011;4127;47.908;10.850;2023-05-10T03:33:56;0.80;;;0.80;;
8171;SDS011;4127;47.908;10.850;2023-05-10T03:36:23;1.00;;;1.00;;
8171;SDS011;4127;47.908;10.850;2023-05-10T03:38:49;0.77;;;0.77;;
8171;SDS011;4127;47.908;10.850;2023-05-10T03:41:16;0.93;;;0.93;;
8171;SDS011;4127;47.908;10.850;2023-05-10T03:43:43;0.93;;;0.63;;
8171;SDS011;4127;47.908;10.850;2023-05-10T03:46:09;0.80;;;0.80;;
8171;SDS011;4127;47.908;10.850;2023-05-10T03:48:36;1.07;;;0.97;;
8171;SDS011;4127;47.908;10.850;2023-05-10T03:51:03;0.93;;;0.87;;
8171;SDS011;4127;47.908;10.850;2023-05-10T03:53:30;0.90;;;0.90;;
8171;SDS011;4127;47.908;10.850;2023-05-10T03:55:57;1.70;;;0.93;;
8171;SDS011;4127;47.908;10.850;2023-05-10T03:58:23;0.80;;;0.80;;
8171;SDS011;4127;47.908;10.850;2023-05-10T04:00:51;0.70;;;0.70;;
8171;SDS011;4127;47.908;10.850;2023-05-10T04:03:18;1.07;;;0.93;;
8171;SDS011;4127;47.908;10.850;2023-05-10T04:05:44;1.17;;;0.87;;
8171;SDS011;4127;47.908;10.850;2023-05-10T04:08:11;0.87;;;0.87;;
8171;SDS011;4127;47.908;10.850;2023-05-10T04:10:38;1.00;;;1.00;;
8171;SDS011;4127;47.908;10.850;2023-05-10T04:13:05;0.83;;;0.83;;
8171;SDS011;4127;47.908;10.850;2023-05-10T04:15:32;0.90;;;0.90;;
8171;SDS011;4127;47.908;10.850;2023-05-10T04:17:59;0.73;;;0.73;;
8171;SDS011;4127;47.908;10.850;2023-05-10T04:20:26;1.27;;;1.00;;
8171;SDS011;4127;47.908;10.850;2023-05-10T04:22:53;1.00;;;1.00;;
8171;SDS011;4127;47.908;10.850;2023-05-10T04:25:19;1.90;;;1.10;;
8171;SDS011;4127;47.908;10.850;2023-05-10T04:27:46;0.90;;;0.90;;
8171;SDS011;4127;47.908;10.850;2023-05-10T04:30:13;0.93;;;0.93;;
8171;SDS011;4127;47.908;10.850;2023-05-10T04:32:40;1.10;;;1.10;;
8171;SDS011;4127;47.908;10.850;2023-05-10T04:35:07;1.00;;;1.00;;
8171;SDS011;4127;47.908;10.850;2023-05-10T04:37:36;0.97;;;0.97;;
8171;SDS011;4127;47.908;10.850;2023-05-10T04:40:03;1.17;;;1.07;;
8171;SDS011;4127;47.908;10.850;2023-05-10T04:42:30;1.07;;;1.07;;
8171;SDS011;4127;47.908;10.850;2023-05-10T04:44:56;1.03;;;1.03;;
8171;SDS011;4127;47.908;10.850;2023-05-10T04:47:23;1.20;;;1.20;;
8171;SDS011;4127;47.908;10.850;2023-05-10T04:49:50;1.10;;;1.10;;
8171;SDS011;4127;47.908;10.850;2023-05-10T04:52:17;1.23;;;1.10;;
8171;SDS011;4127;47.908;10.850;2023-05-10T04:54:44;1.10;;;1.10;;
8171;SDS011;4127;47.908;10.850;2023-05-10T04:57:10;1.10;;;1.10;;
8171;SDS011;4127;47.908;10.850;2023-05-10T04:59:37;1.10;;;1.10;;
8171;SDS011;4127;47.908;10.850;2023-05-10T05:02:04;1.47;;;1.20;;
8171;SDS011;4127;47.908;10.850;2023-05-10T05:04:31;1.40;;;1.30;;
8171;SDS011;4127;47.908;10.850;2023-05-10T05:06:58;1.60;;;1.50;;
8171;SDS011;4127;47.908;10.850;2023-05-10T05:09:25;1.30;;;1.30;;
8171;SDS011;4127;47.908;10.850;2023-05-10T05:11:52;1.50;;;1.40;;
8171;SDS011;4127;47.908;10.850;2023-05-10T05:14:19;1.10;;;1.10;;
8171;SDS011;4127;47.908;10.850;2023-05-10T05:16:47;1.30;;;1.30;;
8171;SDS011;4127;47.908;10.850;2023-05-10T05:19:14;1.10;;;1.10;;
8171;SDS011;4127;47.908;10.850;2023-05-10T05:21:41;1.70;;;1.03;;
8171;SDS011;4127;47.908;10.850;2023-05-10T05:24:08;1.20;;;1.10;;
8171;SDS011;4127;47.908;10.850;2023-05-10T05:26:36;1.37;;;1.30;;
8171;SDS011;4127;47.908;10.850;2023-05-10T05:29:03;1.60;;;1.50;;
8171;SDS011;4127;47.908;10.850;2023-05-10T05:31:29;2.77;;;1.40;;
8171;SDS011;4127;47.908;10.850;2023-05-10T05:33:56;1.47;;;1.00;;
8171;SDS011;4127;47.908;10.850;2023-05-10T05:36:23;1.57;;;1.47;;
8171;SDS011;4127;47.908;10.850;2023-05-10T05:38:50;1.73;;;1.63;;
8171;SDS011;4127;47.908;10.850;2023-05-10T05:41:17;1.97;;;1.80;;
8171;SDS011;4127;47.908;10.850;2023-05-10T05:43:43;2.10;;;2.00;;
8171;SDS011;4127;47.908;10.850;2023-05-10T05:46:10;1.80;;;1.70;;
8171;SDS011;4127;47.908;10.850;2023-05-10T05:48:37;1.30;;;1.30;;
8171;SDS011;4127;47.908;10.850;2023-05-10T05:51:04;3.00;;;1.70;;
8171;SDS011;4127;47.908;10.850;2023-05-10T05:53:32;1.63;;;1.53;;
8171;SDS011;4127;47.908;10.850;2023-05-10T05:55:59;1.70;;;1.60;;
8171;SDS011;4127;47.908;10.850;2023-05-10T05:58:26;1.50;;;1.40;;
8171;SDS011;4127;47.908;10.850;2023-05-10T06:00:53;1.60;;;1.50;;
8171;SDS011;4127;47.908;10.850;2023-05-10T06:03:20;1.57;;;1.40;;
8171;SDS011;4127;47.908;10.850;2023-05-10T06:05:47;1.67;;;1.40;;
8171;SDS011;4127;47.908;10.850;2023-05-10T06:08:14;1.60;;;1.50;;
8171;SDS011;4127;47.908;10.850;2023-05-10T06:10:41;1.30;;;1.20;;
8171;SDS011;4127;47.908;10.850;2023-05-10T06:13:07;1.40;;;1.30;;
8171;SDS011;4127;47.908;10.850;2023-05-10T06:15:34;1.57;;;1.47;;
8171;SDS011;4127;47.908;10.850;2023-05-10T06:18:01;1.70;;;1.60;;
